Time;durP1;ratioP1;P1;durP2;ratioP2;P2;SDS_P1;SDS_P2;PMS_P1;PMS_P2;Temp;Humidity;BMP_temperature;BMP_pressure;BME280_temperature;BME280_humidity;BME280_pressure;Samples;Min_cycle;Max_cycle;Signal;HPM_P1;HPM_P2
2022/03/02 00:02:04;;;;;;;3.03;2.50;;;;;;;17.42;40.83;102677.91;5103665;28;20040;-43
2022/03/02 00:04:29;;;;;;;3.40;2.55;;;;;;;17.51;40.62;102689.81;5103113;28;20028;-46
2022/03/02 00:06:54;;;;;;;3.13;2.42;;;;;;;17.46;40.60;102676.72;5103779;28;20032;-41
2022/03/02 00:09:19;;;;;;;4.05;2.63;;;;;;;17.49;40.71;102681.84;5101653;28;20031;-45
2022/03/02 00:11:45;;;;;;;2.92;2.63;;;;;;;17.48;40.56;102681.97;5102377;28;20034;-41
2022/03/02 00:14:10;;;;;;;3.10;2.65;;;;;;;17.48;40.85;102684.66;5102366;28;20050;-46
2022/03/02 00:16:36;;;;;;;2.95;2.63;;;;;;;17.34;40.67;102660.66;5103266;28;20525;-44
2022/03/02 00:19:02;;;;;;;3.45;2.60;;;;;;;17.46;40.86;102673.16;5103388;28;20030;-42
2022/03/02 00:21:27;;;;;;;3.78;2.80;;;;;;;17.33;40.67;102651.72;5103557;28;20028;-45
2022/03/02 00:23:53;;;;;;;3.70;2.72;;;;;;;17.45;40.87;102676.81;5102668;28;20091;-44
2022/03/02 00:26:18;;;;;;;3.38;2.60;;;;;;;17.44;40.87;102675.94;5103339;28;20028;-45
2022/03/02 00:28:44;;;;;;;3.15;2.75;;;;;;;17.44;40.78;102680.47;5102145;28;20069;-43
2022/03/02 00:31:09;;;;;;;2.80;2.50;;;;;;;17.43;41.06;102681.47;5103252;28;20031;-43
2022/03/02 00:33:35;;;;;;;3.08;2.15;;;;;;;17.41;40.87;102675.31;5103157;28;20488;-43
2022/03/02 00:36:01;;;;;;;3.38;2.60;;;;;;;17.36;40.92;102667.59;5101854;28;20024;-42
2022/03/02 00:38:26;;;;;;;3.60;2.90;;;;;;;17.26;40.80;102655.84;5103855;28;20032;-42
2022/03/02 00:40:51;;;;;;;3.25;2.80;;;;;;;17.38;40.87;102673.75;5106980;28;20035;-42
2022/03/02 00:43:17;;;;;;;3.72;2.65;;;;;;;17.38;40.94;102679.13;5105929;28;20039;-41
2022/03/02 00:45:43;;;;;;;3.00;2.67;;;;;;;17.37;40.84;102680.06;5106333;28;20035;-42
2022/03/02 00:48:08;;;;;;;2.70;2.42;;;;;;;17.36;40.97;102667.59;5106272;28;20038;-42
2022/03/02 00:50:34;;;;;;;2.78;2.45;;;;;;;17.31;40.76;102658.19;5106829;28;20059;-40
2022/03/02 00:53:00;;;;;;;2.78;2.40;;;;;;;17.34;40.92;102664.19;5106462;28;20521;-42
2022/03/02 00:55:25;;;;;;;2.53;2.30;;;;;;;17.32;40.77;102663.44;5105507;28;20028;-42
2022/03/02 00:57:51;;;;;;;3.30;2.97;;;;;;;17.34;40.99;102666.03;5103258;28;20048;-42
2022/03/02 01:00:16;;;;;;;2.90;2.60;;;;;;;17.32;41.01;102663.44;5105152;28;20055;-42
2022/03/02 01:02:42;;;;;;;3.55;2.50;;;;;;;17.31;40.91;102656.34;5106478;28;20028;-43
2022/03/02 01:05:09;;;;;;;3.13;2.72;;;;;;;17.30;40.97;102656.47;5104957;28;20036;-44
2022/03/02 01:07:35;;;;;;;3.78;3.03;;;;;;;17.22;40.98;102649.84;5106260;28;20031;-45
2022/03/02 01:10:00;;;;;;;2.92;2.53;;;;;;;17.30;40.95;102649.25;5103606;28;20036;-42
2022/03/02 01:12:26;;;;;;;2.78;2.38;;;;;;;17.29;41.03;102652.94;5083798;28;20028;-41
2022/03/02 01:14:51;;;;;;;3.13;2.38;;;;;;;17.29;40.93;102647.56;5084620;28;20054;-42
2022/03/02 01:17:18;;;;;;;3.10;2.58;;;;;;;17.29;40.92;102646.66;5100290;28;20032;-43
2022/03/02 01:19:43;;;;;;;3.95;2.60;;;;;;;17.27;40.64;102652.16;5104934;28;20047;-41
2022/03/02 01:22:09;;;;;;;3.30;2.42;;;;;;;17.28;40.77;102653.03;5106148;28;20039;-41
2022/03/02 01:24:34;;;;;;;3.10;2.80;;;;;;;17.23;41.03;102648.00;5105775;28;20020;-42
2022/03/02 01:27:01;;;;;;;3.65;2.92;;;;;;;17.12;40.99;102631.81;5105741;28;20036;-40
2022/03/02 01:29:28;;;;;;;3.00;2.40;;;;;;;17.24;41.01;102641.66;5105348;28;20055;-41
2022/03/02 01:31:54;;;;;;;3.85;2.70;;;;;;;17.23;40.91;102640.78;5106057;28;20028;-41
2022/03/02 01:34:19;;;;;;;3.60;3.00;;;;;;;17.23;40.92;102634.56;5105923;28;20031;-44
2022/03/02 01:36:44;;;;;;;3.40;2.85;;;;;;;17.22;41.10;102638.22;5105878;28;20032;-42
2022/03/02 01:39:09;;;;;;;2.63;2.33;;;;;;;17.22;41.13;102638.22;5105028;28;20077;-40
2022/03/02 01:41:35;;;;;;;3.55;2.78;;;;;;;17.08;40.99;102608.84;5105689;28;20035;-46
2022/03/02 01:44:00;;;;;;;4.03;2.95;;;;;;;17.17;41.12;102630.50;5104722;28;20039;-41
2022/03/02 01:46:26;;;;;;;2.58;2.30;;;;;;;17.19;41.12;102631.25;5103958;28;20036;-44
2022/03/02 01:48:51;;;;;;;3.42;2.90;;;;;;;17.14;40.87;102609.22;5104972;28;20027;-40
2022/03/02 01:51:17;;;;;;;3.42;2.85;;;;;;;17.12;40.95;102610.31;5104810;28;20032;-45
2022/03/02 01:53:42;;;;;;;2.95;2.65;;;;;;;17.17;41.14;102622.44;5104918;28;20024;-41
2022/03/02 01:56:08;;;;;;;3.13;2.70;;;;;;;17.02;41.09;102594.03;5104247;28;20031;-40
2022/03/02 01:58:33;;;;;;;3.80;2.60;;;;;;;17.15;41.04;102616.31;5103677;28;20097;-44
2022/03/02 02:01:00;;;;;;;3.45;2.60;;;;;;;17.14;41.06;102614.59;5105521;28;20036;-44
2022/03/02 02:03:26;;;;;;;2.95;2.60;;;;;;;17.14;41.04;102616.44;5103614;28;20716;-41
2022/03/02 02:05:52;;;;;;;3.10;2.45;;;;;;;17.05;41.18;102609.06;5103803;28;20031;-43
2022/03/02 02:08:17;;;;;;;2.97;2.67;;;;;;;17.11;40.95;102614.81;5102962;28;20027;-41
2022/03/02 02:10:43;;;;;;;2.95;2.65;;;;;;;17.11;40.97;102613.97;5103637;28;20028;-46
2022/03/02 02:13:08;;;;;;;3.47;2.80;;;;;;;17.04;41.19;102593.94;5103996;28;20020;-43
2022/03/02 02:15:33;;;;;;;2.53;2.30;;;;;;;17.09;41.02;102613.25;5105061;28;20050;-42
2022/03/02 02:17:59;;;;;;;3.58;2.72;;;;;;;17.07;41.12;102602.59;5103689;28;20649;-43
2022/03/02 02:20:25;;;;;;;3.58;2.70;;;;;;;17.06;41.15;102600.88;5104876;28;20023;-44
2022/03/02 02:22:51;;;;;;;3.13;2.67;;;;;;;17.06;41.17;102600.03;5103228;28;20024;-43
2022/03/02 02:25:17;;;;;;;3.35;2.88;;;;;;;17.05;41.24;102604.56;5104725;28;20549;-42
2022/03/02 02:27:44;;;;;;;3.45;2.70;;;;;;;17.04;41.05;102596.63;5103563;28;20024;-41
2022/03/02 02:30:11;;;;;;;3.30;2.50;;;;;;;17.00;41.09;102585.25;5104654;28;20046;-43
2022/03/02 02:32:37;;;;;;;3.67;2.88;;;;;;;17.03;41.21;102595.72;5103491;28;20016;-47
2022/03/02 02:35:03;;;;;;;3.00;2.67;;;;;;;17.02;41.10;102594.03;5104492;28;20084;-42
2022/03/02 02:37:28;;;;;;;3.38;2.92;;;;;;;17.02;41.15;102593.19;5103045;28;20491;-43
2022/03/02 02:40:00;;;;;;;3.88;2.92;;;;;;;17.01;41.05;102586.94;5103282;28;20031;-41
2022/03/02 02:42:27;;;;;;;3.10;2.58;;;;;;;16.99;41.08;102589.75;5103673;28;20881;-43
2022/03/02 02:44:53;;;;;;;2.70;2.50;;;;;;;16.93;41.07;102574.09;5104629;28;20035;-43
2022/03/02 02:47:18;;;;;;;3.17;2.67;;;;;;;16.98;41.25;102595.22;5103334;28;20050;-46
2022/03/02 02:49:43;;;;;;;2.70;2.42;;;;;;;16.96;40.88;102591.81;5103742;28;20032;-44
2022/03/02 02:52:09;;;;;;;2.97;2.58;;;;;;;16.95;41.23;102585.59;5086349;28;20047;-42
2022/03/02 02:54:34;;;;;;;2.38;2.17;;;;;;;16.96;41.13;102595.34;5102893;28;20023;-43
2022/03/02 02:56:59;;;;;;;3.25;2.75;;;;;;;16.94;41.12;102586.53;5104133;28;20030;-40
2022/03/02 02:59:25;;;;;;;2.97;2.60;;;;;;;16.94;41.20;102583.84;5093827;28;20522;-41
2022/03/02 03:01:50;;;;;;;3.08;2.65;;;;;;;16.93;41.07;102587.50;5082737;28;20024;-46
2022/03/02 03:04:16;;;;;;;2.80;2.55;;;;;;;16.93;41.27;102575.91;5084134;28;20032;-42
2022/03/02 03:06:41;;;;;;;3.13;2.83;;;;;;;16.92;41.21;102579.59;5084043;28;20067;-41
2022/03/02 03:09:06;;;;;;;3.40;2.63;;;;;;;16.91;41.21;102578.72;5091167;28;20107;-40
2022/03/02 03:11:32;;;;;;;3.67;2.75;;;;;;;16.68;41.32;102539.25;5104334;28;20075;-45
2022/03/02 03:13:58;;;;;;;3.15;2.75;;;;;;;16.87;41.23;102568.34;5101730;28;20027;-40
2022/03/02 03:16:23;;;;;;;2.97;2.63;;;;;;;16.89;41.15;102569.91;5102862;28;20024;-45
2022/03/02 03:18:49;;;;;;;3.28;2.63;;;;;;;16.87;41.21;102566.50;5104055;28;20032;-45
2022/03/02 03:21:14;;;;;;;3.50;2.72;;;;;;;16.87;41.08;102561.13;5102672;28;20016;-44
2022/03/02 03:23:39;;;;;;;2.92;2.53;;;;;;;16.83;41.12;102558.78;5102559;28;20023;-44
2022/03/02 03:26:05;;;;;;;2.80;2.50;;;;;;;16.86;41.68;102570.13;5103798;28;20050;-46
2022/03/02 03:28:30;;;;;;;3.63;3.17;;;;;;;16.87;41.22;102560.28;5102672;28;20028;-44
2022/03/02 03:30:56;;;;;;;2.85;2.60;;;;;;;16.64;41.03;102527.03;5103526;28;20103;-44
2022/03/02 03:33:22;;;;;;;3.20;2.60;;;;;;;16.87;41.30;102557.59;5103920;28;20086;-43
2022/03/02 03:35:47;;;;;;;3.33;2.60;;;;;;;16.84;41.19;102555.97;5085671;28;20499;-41
2022/03/02 03:38:12;;;;;;;2.63;2.42;;;;;;;16.84;41.17;102558.66;5103388;28;20028;-41
2022/03/02 03:40:38;;;;;;;2.83;2.53;;;;;;;16.79;41.15;102550.09;5103685;28;20024;-45
2022/03/02 03:43:03;;;;;;;3.40;2.72;;;;;;;16.84;41.20;102553.28;5102621;28;20397;-44
2022/03/02 03:45:28;;;;;;;3.05;2.75;;;;;;;16.84;41.29;102555.13;5103712;28;20081;-41
2022/03/02 03:47:54;;;;;;;3.35;2.97;;;;;;;16.81;41.31;102544.59;5103258;28;20035;-45
2022/03/02 03:50:20;;;;;;;3.15;2.35;;;;;;;16.82;41.23;102547.19;5103589;28;20020;-46
2022/03/02 03:52:45;;;;;;;3.15;2.78;;;;;;;16.80;41.29;102549.13;5102339;28;20028;-42
2022/03/02 03:55:11;;;;;;;2.90;2.40;;;;;;;16.81;41.29;102549.97;5103426;28;20024;-42
2022/03/02 03:57:36;;;;;;;2.78;2.40;;;;;;;16.77;41.29;102535.91;5100730;28;20886;-45
2022/03/02 04:00:05;;;;;;;3.45;2.88;;;;;;;16.80;41.38;102542.88;5103417;28;20024;-44
2022/03/02 04:02:30;;;;;;;3.30;2.50;;;;;;;16.79;41.16;102541.19;5103697;28;20028;-46
2022/03/02 04:04:55;;;;;;;2.90;2.60;;;;;;;16.78;41.21;102545.69;5103321;28;20036;-45
2022/03/02 04:07:21;;;;;;;2.70;2.50;;;;;;;16.74;41.31;102538.84;5103414;28;20034;-44
2022/03/02 04:09:46;;;;;;;2.72;2.25;;;;;;;16.77;41.24;102541.28;5102507;28;20032;-45
2022/03/02 04:12:11;;;;;;;2.65;2.45;;;;;;;16.75;41.30;102540.53;5082811;28;20044;-44
2022/03/02 04:14:36;;;;;;;4.82;3.00;;;;;;;16.76;41.30;102539.56;5104579;28;20041;-43
2022/03/02 04:17:02;;;;;;;3.00;2.70;;;;;;;16.62;41.28;102519.09;5107466;28;20107;-43
2022/03/02 04:19:27;;;;;;;2.85;2.50;;;;;;;16.74;41.25;102536.16;5105945;28;20024;-44
2022/03/02 04:21:52;;;;;;;2.80;2.55;;;;;;;16.74;41.29;102539.69;5106298;28;20024;-44
2022/03/02 04:24:17;;;;;;;3.53;2.72;;;;;;;16.73;41.17;102529.91;5105750;28;20027;-41
2022/03/02 04:26:43;;;;;;;3.40;2.85;;;;;;;16.58;41.25;102501.50;5107037;28;20035;-42
2022/03/02 04:29:08;;;;;;;2.60;2.35;;;;;;;16.71;41.26;102522.91;5105638;28;20117;-41
2022/03/02 04:31:33;;;;;;;3.53;3.00;;;;;;;16.71;41.40;102528.28;5088969;28;20059;-41
2022/03/02 04:33:59;;;;;;;3.17;2.83;;;;;;;16.69;41.50;102520.34;5107051;28;20092;-43
2022/03/02 04:36:24;;;;;;;3.22;2.70;;;;;;;16.70;41.31;102521.22;5107043;28;20027;-45
2022/03/02 04:38:49;;;;;;;2.40;2.20;;;;;;;16.68;41.24;102507.03;5106378;28;20096;-44
2022/03/02 04:41:14;;;;;;;2.92;2.63;;;;;;;16.68;41.39;102513.25;5105629;28;20019;-40
2022/03/02 04:43:40;;;;;;;3.03;2.72;;;;;;;16.68;41.27;102507.88;5104425;28;20032;-42
2022/03/02 04:46:05;;;;;;;2.92;2.50;;;;;;;16.66;41.41;102498.22;5106614;28;20032;-45
2022/03/02 04:48:31;;;;;;;3.90;3.00;;;;;;;16.54;41.22;102485.72;5106912;28;20024;-44
2022/03/02 04:50:56;;;;;;;3.53;2.97;;;;;;;16.68;41.38;102507.03;5105613;28;20477;-43
2022/03/02 04:53:23;;;;;;;4.20;2.78;;;;;;;16.66;41.35;102499.09;5105418;28;20019;-44
2022/03/02 04:55:49;;;;;;;3.63;2.78;;;;;;;16.56;41.37;102490.00;5105386;28;20071;-41
2022/03/02 04:58:15;;;;;;;3.00;2.58;;;;;;;16.68;41.27;102507.03;5103934;28;20044;-43
2022/03/02 05:00:40;;;;;;;3.17;2.88;;;;;;;16.67;41.29;102506.16;5106504;28;20058;-43
2022/03/02 05:03:06;;;;;;;2.85;2.33;;;;;;;16.63;41.42;102499.31;5106572;28;20040;-44
2022/03/02 05:05:35;;;;;;;3.65;3.05;;;;;;;16.63;41.24;102502.00;5105887;28;20043;-40
2022/03/02 05:08:00;;;;;;;3.35;2.53;;;;;;;16.65;41.29;102504.56;5104861;28;20115;-41
2022/03/02 05:10:26;;;;;;;2.97;2.47;;;;;;;16.51;41.29;102481.44;5104725;28;20031;-44
2022/03/02 05:12:51;;;;;;;2.97;2.40;;;;;;;16.65;41.41;102496.50;5103805;28;20024;-42
2022/03/02 05:15:17;;;;;;;2.83;2.53;;;;;;;16.44;41.41;102466.78;5104848;28;20045;-44
2022/03/02 05:17:44;;;;;;;3.13;2.60;;;;;;;16.65;41.58;102491.13;5104946;28;20032;-45
2022/03/02 05:20:11;;;;;;;3.25;2.53;;;;;;;16.65;41.40;102481.28;5099984;28;20047;-40
2022/03/02 05:22:37;;;;;;;2.80;2.50;;;;;;;16.64;41.68;102479.53;5105909;28;20023;-41
2022/03/02 05:25:04;;;;;;;4.28;3.33;;;;;;;16.64;41.73;102484.06;5101424;28;20084;-40
2022/03/02 05:27:29;;;;;;;3.03;2.70;;;;;;;16.61;41.84;102477.09;5104537;28;20020;-43
2022/03/02 05:29:55;;;;;;;2.80;2.45;;;;;;;16.64;41.86;102482.22;5100822;28;20046;-41
2022/03/02 05:32:20;;;;;;;3.60;2.80;;;;;;;16.53;41.99;102465.22;5096584;28;20445;-40
2022/03/02 05:34:45;;;;;;;3.58;3.03;;;;;;;16.61;41.90;102484.28;5102383;28;20071;-42
2022/03/02 05:37:11;;;;;;;3.72;3.00;;;;;;;16.48;42.11;102473.59;5101319;28;20016;-42
2022/03/02 05:39:36;;;;;;;3.20;2.88;;;;;;;16.62;42.02;102481.50;5103350;28;20078;-43
2022/03/02 05:42:02;;;;;;;3.00;2.58;;;;;;;16.39;42.16;102447.44;5104278;28;20024;-41
2022/03/02 05:44:27;;;;;;;3.15;2.72;;;;;;;16.48;42.23;102468.22;5099111;28;20058;-44
2022/03/02 05:46:52;;;;;;;3.08;2.78;;;;;;;16.47;42.15;102466.53;5101329;28;20027;-40
2022/03/02 05:49:18;;;;;;;3.08;2.67;;;;;;;16.61;42.47;102482.47;5103915;28;20024;-44
2022/03/02 05:51:44;;;;;;;3.17;2.85;;;;;;;16.48;42.14;102458.38;5104949;28;20427;-42
2022/03/02 05:54:10;;;;;;;3.03;2.72;;;;;;;16.62;42.34;102484.19;5102064;28;20020;-42
2022/03/02 05:56:39;;;;;;;3.33;2.72;;;;;;;16.62;42.23;102483.31;5096766;28;20035;-43
2022/03/02 05:59:10;;;;;;;3.17;2.85;;;;;;;16.62;42.31;102502.13;5095604;28;20051;-38
2022/03/02 06:01:36;;;;;;;4.38;3.47;;;;;;;16.61;42.44;102498.59;5102497;28;20032;-44
2022/03/02 06:04:02;;;;;;;5.82;3.70;;;;;;;16.41;42.60;102459.78;5104781;28;20031;-42
2022/03/02 06:06:32;;;;;;;4.40;3.67;;;;;;;16.65;42.47;102500.06;5099087;28;20039;-45
2022/03/02 06:09:02;;;;;;;5.60;4.70;;;;;;;16.67;42.45;102499.94;5104287;28;20016;-43
2022/03/02 06:11:27;;;;;;;5.53;4.60;;;;;;;16.69;42.31;102503.34;5101631;28;20523;-46
2022/03/02 06:13:54;;;;;;;5.53;4.45;;;;;;;16.70;42.33;102505.94;5095264;28;20051;-44
2022/03/02 06:16:20;;;;;;;6.07;4.50;;;;;;;16.71;42.37;102507.66;5103029;28;20395;-44
2022/03/02 06:18:45;;;;;;;6.10;4.47;;;;;;;16.71;42.29;102515.72;5104471;28;20040;-43
2022/03/02 06:21:15;;;;;;;6.95;4.63;;;;;;;16.75;42.37;102521.75;5104947;28;20024;-42
2022/03/02 06:23:40;;;;;;;5.32;4.25;;;;;;;16.74;42.30;102520.03;5104608;28;20049;-43
2022/03/02 06:26:07;;;;;;;5.05;4.55;;;;;;;16.63;42.30;102495.78;5104382;28;21022;-42
2022/03/02 06:28:32;;;;;;;6.10;4.70;;;;;;;16.76;42.19;102519.91;5083197;28;20115;-44
2022/03/02 06:30:57;;;;;;;5.57;4.70;;;;;;;16.64;42.46;102497.47;5086988;28;20043;-43
2022/03/02 06:33:23;;;;;;;6.20;5.07;;;;;;;16.65;42.30;102491.13;5083524;28;20053;-40
2022/03/02 06:35:48;;;;;;;8.05;5.40;;;;;;;16.78;42.34;102518.84;5065903;28;20020;-42
2022/03/02 06:38:14;;;;;;;8.63;5.88;;;;;;;16.79;42.39;102511.63;5083670;28;20404;-44
2022/03/02 06:40:41;;;;;;;5.72;4.68;;;;;;;16.79;41.88;102512.50;5082721;28;20020;-42
2022/03/02 06:43:09;;;;;;;5.32;4.72;;;;;;;16.69;42.23;102489.94;5083098;28;20028;-42
2022/03/02 06:45:57;;;;;;;5.85;4.70;;;;;;;16.81;42.11;102505.16;5083070;28;20126;-42
2022/03/02 06:48:36;;;;;;;5.35;4.38;;;;;;;16.82;42.06;102514.94;5084188;28;20035;-42
2022/03/02 06:51:01;;;;;;;5.53;4.80;;;;;;;16.68;41.98;102488.22;5102473;28;20086;-40
2022/03/02 06:53:35;;;;;;;6.82;5.03;;;;;;;16.68;42.04;102496.28;5104175;28;20433;-40
2022/03/02 06:56:03;;;;;;;5.90;5.07;;;;;;;16.68;41.84;102482.84;5102840;28;20025;-39
2022/03/02 06:58:34;;;;;;;5.95;4.50;;;;;;;16.84;41.90;102521.06;5103084;28;20104;-42
2022/03/02 07:01:01;;;;;;;6.85;4.95;;;;;;;16.71;41.75;102494.22;5103131;28;20031;-41
2022/03/02 07:03:28;;;;;;;5.28;4.78;;;;;;;16.85;41.78;102514.69;5102845;28;20061;-42
2022/03/02 07:05:54;;;;;;;5.97;4.80;;;;;;;16.85;41.79;102514.69;5104031;28;20049;-41
2022/03/02 07:08:21;;;;;;;5.50;4.43;;;;;;;16.74;41.55;102496.72;5103862;28;20024;-42
2022/03/02 07:10:46;;;;;;;6.88;4.63;;;;;;;16.87;41.62;102523.50;5102202;28;20084;-42
2022/03/02 07:13:12;;;;;;;5.10;4.60;;;;;;;16.87;41.64;102518.13;5084927;28;20103;-41
2022/03/02 07:15:37;;;;;;;6.00;5.30;;;;;;;16.68;41.52;102478.34;5103998;28;20529;-42
2022/03/02 07:18:04;;;;;;;5.60;5.00;;;;;;;16.91;41.42;102518.78;5104011;28;20070;-41
2022/03/02 07:20:29;;;;;;;7.18;5.00;;;;;;;16.90;41.38;102515.19;5102502;28;20020;-42
2022/03/02 07:22:56;;;;;;;6.07;5.07;;;;;;;17.00;41.27;102512.69;5102525;28;20115;-42
2022/03/02 07:25:25;;;;;;;6.70;5.05;;;;;;;17.07;41.32;102511.22;5103808;28;20032;-43
2022/03/02 07:27:51;;;;;;;6.53;5.20;;;;;;;17.15;40.99;102519.56;5101429;28;20032;-41
2022/03/02 07:30:17;;;;;;;6.68;5.47;;;;;;;17.22;40.74;102525.34;5102620;28;20027;-42
2022/03/02 07:32:45;;;;;;;5.70;5.05;;;;;;;17.31;40.75;102526.44;5103977;28;20028;-41
2022/03/02 07:35:11;;;;;;;6.33;4.97;;;;;;;17.41;40.40;102524.75;5103727;28;20081;-43
2022/03/02 07:37:38;;;;;;;6.35;5.25;;;;;;;17.41;40.35;102504.09;5103578;28;20028;-41
2022/03/02 07:40:05;;;;;;;4.93;4.35;;;;;;;17.67;40.09;102528.97;5103480;28;20088;-41
2022/03/02 07:42:31;;;;;;;5.53;4.95;;;;;;;17.78;39.90;102525.44;5101501;28;20047;-41
2022/03/02 07:44:57;;;;;;;6.18;4.68;;;;;;;17.89;39.65;102532.69;5102457;28;20024;-40
2022/03/02 07:47:23;;;;;;;5.25;4.50;;;;;;;17.87;39.67;102505.00;5103639;28;20036;-41
2022/03/02 07:49:49;;;;;;;7.55;5.10;;;;;;;17.98;38.95;102513.94;5107312;28;20028;-40
2022/03/02 07:52:15;;;;;;;5.60;4.70;;;;;;;18.18;38.88;102533.88;5107873;28;20107;-43
2022/03/02 07:54:42;;;;;;;5.03;4.43;;;;;;;18.28;38.81;102533.13;5106459;28;20024;-43
2022/03/02 07:57:10;;;;;;;5.65;4.97;;;;;;;18.38;38.43;102531.38;5106603;28;20050;-43
2022/03/02 07:59:39;;;;;;;5.45;4.45;;;;;;;18.52;38.33;102532.94;5084776;28;20072;-45
2022/03/02 08:02:06;;;;;;;6.45;4.78;;;;;;;18.58;37.93;102527.06;5086082;28;20032;-44
2022/03/02 08:04:32;;;;;;;4.65;4.22;;;;;;;18.74;37.87;102538.31;5099422;28;20615;-40
2022/03/02 08:06:58;;;;;;;5.85;5.00;;;;;;;18.82;37.56;102540.34;5085989;28;20024;-44
2022/03/02 08:09:23;;;;;;;6.72;5.97;;;;;;;18.83;37.54;102517.81;5102500;28;20111;-42
2022/03/02 08:11:49;;;;;;;6.13;4.78;;;;;;;18.99;37.08;102512.84;5085882;28;20050;-42
2022/03/02 08:14:18;;;;;;;5.18;4.60;;;;;;;19.28;36.82;102526.50;5067462;28;20025;-41
2022/03/02 08:16:45;;;;;;;5.63;4.50;;;;;;;19.59;36.55;102527.44;5087056;28;20539;-47
2022/03/02 08:19:11;;;;;;;4.88;4.25;;;;;;;20.05;36.11;102527.91;5087196;28;20082;-43
2022/03/02 08:21:41;;;;;;;5.05;4.13;;;;;;;20.49;35.16;102523.09;5085815;28;20032;-43
2022/03/02 08:24:08;;;;;;;4.63;3.97;;;;;;;20.98;34.23;102524.81;5086721;28;20032;-44
2022/03/02 08:26:34;;;;;;;5.63;4.40;;;;;;;21.32;33.79;102529.78;5086862;28;20032;-42
2022/03/02 08:29:06;;;;;;;6.93;4.80;;;;;;;21.51;33.20;102520.78;5084400;28;20035;-42
2022/03/02 08:31:32;;;;;;;5.30;4.30;;;;;;;21.59;33.03;102507.38;5086893;28;20042;-41
2022/03/02 08:33:59;;;;;;;4.88;4.30;;;;;;;21.91;32.81;102515.91;5086558;28;20115;-46
2022/03/02 08:36:28;;;;;;;5.45;4.25;;;;;;;22.09;32.35;102524.13;5106305;28;20456;-42
2022/03/02 08:38:54;;;;;;;6.22;4.65;;;;;;;22.06;31.81;102527.13;5106643;28;20024;-44
2022/03/02 08:41:19;;;;;;;5.18;4.13;;;;;;;21.92;32.29;102527.63;5107019;28;20054;-47
2022/03/02 08:43:49;;;;;;;5.55;4.18;;;;;;;21.74;32.44;102523.97;5105892;28;20035;-45
2022/03/02 08:46:14;;;;;;;4.93;4.22;;;;;;;21.49;32.70;102520.91;5106986;28;20079;-45
2022/03/02 08:48:40;;;;;;;5.43;4.60;;;;;;;21.28;32.93;102518.41;5106793;28;20032;-43
2022/03/02 08:51:05;;;;;;;5.32;4.40;;;;;;;21.10;33.08;102517.41;5106719;28;20024;-44
2022/03/02 08:53:31;;;;;;;4.65;3.80;;;;;;;20.95;33.42;102517.88;5106396;28;20024;-42
2022/03/02 08:55:59;;;;;;;4.75;4.15;;;;;;;20.91;33.49;102508.34;5105578;28;20008;-47
2022/03/02 08:58:26;;;;;;;5.43;4.25;;;;;;;21.08;33.10;102511.31;5104657;28;20043;-44
2022/03/02 09:00:52;;;;;;;5.68;4.10;;;;;;;21.38;33.08;102510.28;5106387;28;20050;-45
2022/03/02 09:03:18;;;;;;;5.53;4.05;;;;;;;21.85;32.51;102504.84;5106699;28;20032;-46
2022/03/02 09:05:44;;;;;;;5.25;4.43;;;;;;;22.32;31.42;102502.06;5104936;28;20177;-43
2022/03/02 09:08:09;;;;;;;6.22;4.53;;;;;;;22.69;31.04;102499.22;5104906;28;20062;-45
2022/03/02 09:10:37;;;;;;;5.82;4.30;;;;;;;23.13;30.38;102491.13;5106271;28;20020;-45
2022/03/02 09:13:03;;;;;;;4.70;3.83;;;;;;;23.58;30.02;102490.06;5105415;28;20024;-43
2022/03/02 09:15:29;;;;;;;6.72;4.30;;;;;;;24.05;29.16;102487.75;5106269;28;20051;-43
2022/03/02 09:17:55;;;;;;;5.20;4.22;;;;;;;24.44;28.73;102476.34;5106214;28;20038;-46
2022/03/02 09:20:21;;;;;;;4.43;3.55;;;;;;;24.82;28.08;102488.44;5106175;28;20106;-45
2022/03/02 09:22:46;;;;;;;5.32;4.30;;;;;;;25.14;27.44;102490.31;5106125;28;20039;-46
2022/03/02 09:25:12;;;;;;;5.05;3.85;;;;;;;25.41;27.00;102480.91;5104821;28;20031;-42
2022/03/02 09:27:37;;;;;;;4.70;4.18;;;;;;;25.66;26.71;102480.84;5104950;28;20022;-41
2022/03/02 09:30:06;;;;;;;5.68;4.32;;;;;;;25.87;26.22;102478.41;5106041;28;20384;-44
2022/03/02 09:32:32;;;;;;;4.05;3.53;;;;;;;26.06;25.85;102484.44;5106331;28;20032;-42
2022/03/02 09:34:59;;;;;;;5.20;3.85;;;;;;;26.25;25.55;102497.63;5105688;28;20062;-40
2022/03/02 09:37:25;;;;;;;4.85;4.00;;;;;;;26.36;25.36;102486.28;5105712;28;20028;-43
2022/03/02 09:39:51;;;;;;;4.28;3.45;;;;;;;26.53;25.26;102483.50;5105522;28;20020;-47
2022/03/02 09:42:26;;;;;;;4.20;3.22;;;;;;;26.69;25.09;102482.53;5105749;28;20036;-40
2022/03/02 09:45:05;;;;;;;3.70;3.33;;;;;;;26.84;24.43;102475.22;5105436;28;20043;-41
2022/03/02 09:47:42;;;;;;;3.40;3.03;;;;;;;26.95;24.46;102473.94;5105811;28;20024;-43
2022/03/02 09:50:09;;;;;;;4.15;3.20;;;;;;;27.01;24.16;102479.50;5105655;28;20020;-42
2022/03/02 09:52:37;;;;;;;3.95;3.17;;;;;;;27.11;24.17;102480.13;5105544;28;20020;-45
2022/03/02 09:55:07;;;;;;;3.92;3.13;;;;;;;27.19;23.93;102475.59;5104338;28;20072;-44
2022/03/02 09:57:34;;;;;;;3.83;3.42;;;;;;;27.15;23.64;102472.41;5103341;28;20031;-42
2022/03/02 09:59:59;;;;;;;3.88;3.15;;;;;;;26.84;24.07;102467.03;5103611;28;20565;-45
2022/03/02 10:02:35;;;;;;;4.47;3.25;;;;;;;26.26;24.40;102477.50;5105413;28;20032;-42
2022/03/02 10:05:05;;;;;;;5.85;3.92;;;;;;;25.46;25.41;102468.66;5105097;28;20123;-47
2022/03/02 10:07:36;;;;;;;3.90;3.38;;;;;;;24.68;26.40;102470.06;5105052;28;20039;-45
2022/03/02 10:10:13;;;;;;;4.65;3.80;;;;;;;23.98;27.22;102472.28;5104836;28;20024;-45
2022/03/02 10:12:40;;;;;;;4.57;3.38;;;;;;;23.42;27.68;102475.38;5103611;28;20028;-43
2022/03/02 10:15:08;;;;;;;5.03;3.70;;;;;;;22.94;28.50;102471.34;5105285;28;20115;-45
2022/03/02 10:17:36;;;;;;;5.00;3.53;;;;;;;22.55;28.96;102473.47;5105070;28;20027;-43
2022/03/02 10:20:07;;;;;;;4.32;3.63;;;;;;;22.21;29.79;102471.44;5105066;28;20062;-44
2022/03/02 10:22:57;;;;;;;3.63;3.22;;;;;;;21.89;30.20;102471.91;5105062;28;20051;-45
2022/03/02 10:25:27;;;;;;;3.65;3.10;;;;;;;21.64;30.64;102467.19;5104739;28;20046;-43
2022/03/02 10:28:04;;;;;;;5.20;3.85;;;;;;;21.38;30.70;102461.59;5104034;28;20102;-44
2022/03/02 10:30:38;;;;;;;3.13;2.80;;;;;;;21.22;30.95;102475.69;5104779;28;20020;-44
2022/03/02 10:33:17;;;;;;;4.32;3.88;;;;;;;21.06;31.47;102467.31;5104956;28;20030;-45
2022/03/02 10:35:49;;;;;;;5.07;3.53;;;;;;;20.90;31.75;102457.13;5104466;28;20027;-43
2022/03/02 10:38:16;;;;;;;3.67;3.30;;;;;;;20.80;31.83;102464.38;5104546;28;20038;-46
2022/03/02 10:40:42;;;;;;;3.97;3.50;;;;;;;20.68;32.23;102455.53;5104795;28;20044;-42
2022/03/02 10:43:10;;;;;;;3.67;2.80;;;;;;;20.57;32.23;102459.25;5102417;28;20047;-43
2022/03/02 10:45:51;;;;;;;4.10;3.50;;;;;;;20.49;32.78;102464.50;5104178;28;20026;-43
2022/03/02 10:48:22;;;;;;;4.40;3.38;;;;;;;20.42;32.88;102455.22;5104719;28;20031;-47
2022/03/02 10:50:51;;;;;;;3.92;3.28;;;;;;;20.34;33.14;102453.22;5104498;28;20030;-46
2022/03/02 10:53:19;;;;;;;5.03;3.83;;;;;;;20.27;33.36;102448.53;5103381;28;20034;-42
2022/03/02 10:55:48;;;;;;;4.47;4.00;;;;;;;20.19;33.29;102447.38;5103871;28;20079;-46
2022/03/02 10:58:17;;;;;;;4.40;3.53;;;;;;;20.12;33.68;102443.53;5103123;28;20059;-46
2022/03/02 11:00:43;;;;;;;4.72;3.78;;;;;;;20.07;33.64;102444.94;5089682;28;20087;-48
2022/03/02 11:03:08;;;;;;;4.40;3.53;;;;;;;20.00;33.74;102444.63;5095506;28;20036;-42
2022/03/02 11:05:34;;;;;;;4.80;4.03;;;;;;;19.95;33.88;102436.97;5083413;28;20035;-43
2022/03/02 11:08:00;;;;;;;4.60;3.28;;;;;;;19.90;33.84;102433.81;5082257;28;20024;-45
2022/03/02 11:10:31;;;;;;;3.80;3.35;;;;;;;19.86;34.24;102442.34;5087385;28;20020;-45
2022/03/02 11:12:58;;;;;;;5.60;4.13;;;;;;;19.82;34.68;102435.50;5082337;28;20028;-44
2022/03/02 11:15:24;;;;;;;4.18;3.15;;;;;;;19.72;34.55;102422.84;5083881;28;20025;-42
2022/03/02 11:17:56;;;;;;;5.88;3.53;;;;;;;19.74;34.77;102430.78;5065613;28;20070;-46
2022/03/02 11:20:22;;;;;;;4.07;3.67;;;;;;;19.70;34.52;102427.50;5083679;28;20115;-45
2022/03/02 11:23:06;;;;;;;4.72;3.90;;;;;;;19.66;35.12;102426.06;5083705;28;20053;-43